الصفحة الرئيسية
METAR-TAF:

METAR-TAF

مطار :

Craig, كولورادو, الولايات المتحدة

دائرة عرض: 40-29-36N, خط طول: 107-31-25W, ارتفاع: 1888 متر

مراقبة الطقس الحالي

تاريخ ووقت الإصدار 22 دقيقة قبل الساعة 21:53UTC
ريح 6 عقدة من الشمال/الشمال الشرقي
درجة الحرارة 6°درجة مئوية
الرطوبة 28%
ضغط 1028 hPa
الرؤية: 16.1 كم
سماء صافية

METAR: KCAG 152153Z AUTO 02006KT 10SM CLR 06/M11 A3036 RMK AO2 SLP312 T00611106

زمن: 16:15 (22:15 UTC)


TAF: مفقودة

أرصاد الطقس والتوقعات من أكثر من 4000 مطار (تقارير الطقس للمطار METAR والتنبؤ بالطقس بالمطارTAF).

المحطات المتاحة هي النقط الصفراء والحمراء على الخريطة.

حرك المؤشر فوق النقطة لمعرفة اسم المحطة.

ثم انقر لمعرفة أرصاد وتوقعات الطقس.

لتغيير الخارطة: اضغط على الأزرار الخضراء مع رمز الصليب الأسود للتكبير. على الزر الأخضر مع شرطة للتصغير، أو على الأسهم الخضراء للخرائط المجاورة.


METAR-TAF: